Terminal Aerodrome Forecast
Issued by NWS

Home | Current Version | Previous Version | Text Only | Print | Product List | Glossary On
Versions: 1 2 3 4 5 6 7 8 9 10 11 12 13 14 15 16
000
FTUS44 KBMX 040500
TAFMGM
TAF
KMGM 040532Z 0406/0506 18005KT P6SM OVC007
     FM041700 20010KT 6SM BR OVC020
     FM042000 21008KT P6SM OVC050
     FM050300 18007KT P6SM OVC015=

USA.gov is the U.S. government's official web portal to all federal, state and local government web resources and services.